Asahikawa Airport
RJEC : now visible

Airfield :











YOU CAN JOIN US ON...

 
LOGIN :

Register | Disclaimer

   EN    FR    IT 

 









Legend :    VFR   Marginal VFR   IFR   Intensive IFR   Very Intensive IFR
Visi :
Ceiling :
>= 8 km
>= 3000ft
5 to 8 km
1000 to 3000 ft
1500m to 5 km
500 to 1000 ft
800 to 1500m
200 to 500 ft
< 800m
< 200 ft
Symbols :   Thunderstorms  Fog  Heavy snow  Heavy precipitations  Wind > 20 kt






- Airport Elevation : 721 ft
- IATA code : AKJ


RJEC - Asahikawa

CURRENT METAR :
  • 292300Z 17005KT 130V210 8000 -SHRA FEW001 SCT003 BKN008 10/08 Q1011

EXPIRED METARs :
  • 292200Z AUTO 16006KT 9999 FEW023 OVC025 09/07 Q1010
  • 292100Z AUTO 16006KT 9999 SCT022 BKN026 BKN035 08/07 Q1010
  • 292000Z AUTO 17006KT 9999 SCT027 BKN030 BKN036 07/07 Q1010
  • 291900Z AUTO 15005KT 9999 -RA FEW038 SCT049 OVC050 07/06 Q1010

TAF TAF RJEC
Valid from the 30 at 00:00 until the 31 at 06:00 UTC


292305Z 3000/3106 16005KT 9999 FEW008 BKN015
BECMG 3000/3002 36005KT
TEMPO 3000/3002 FEW006 BKN008
RJJJ FIR / Asia



MET'MAP, your aeronautical weather chart ! - Copyright ORBIFLY December 2007 - Disclaimer

ORBIFLY MET'MAP TEAM :

Programming & Development : Alexandra Zaïnal
Original concept : Baudouin d'Aumeries
Technical & hardware support : Manuel Goepfert
Assistance : Marc-Olivier Méhu




SOURCES & CREDITS :

   NOAA       Earth
Advisory